To NAV CANADA Home Page Login to a new session Search on AWWS site Feedback and Comments Disclaimer Vers la page française équivalente Tips FAQ What's new on the site To the Forecasts and Observations / NOTAM section To "File a Flight Plan" website Publications and other links Update of the User's profile FIC Telephone Numbers My Weather Data Folder Route Weather Data Regional Weather Data Local Weather Data To the Forecasts and Observations / NOTAM section
Request Generated 08/30/2015 at 09:48:14 UTC . Weather information available at that time is displayed.

METAR/TAF

EDMONTON/EDMONTON INTL/AB    

METAR CYEG 300900Z 13006KT 15SM FEW250 08/05 A2950 RMK CI1 CI TR
SLP990 DENSITY ALT 2500FT=
METAR CYEG 300800Z 15005KT 15SM SKC 08/05 A2948 RMK SLP985 DENSITY
ALT 2500FT=
METAR CYEG 300700Z 15006KT 15SM FEW160 09/06 A2947 RMK AC1 AC TR
SLP983 DENSITY ALT 2600FT=

TAF CYEG 300838Z 3009/3106 14006KT P6SM FEW200
BECMG 3015/3017 22012G22KT
FM302100 29012KT P6SM SCT050 BKN100 TEMPO 3021/3024 P6SM -SHRA
BKN050 PROB30 3021/3024 VRB15G25KT 5SM TSRA BKN050CB
FM310000 28010KT P6SM FEW080 SCT100
RMK NXT FCST BY 301200Z=
Your time UTC time
Weather data provided by Environment Canada and NAV CANADA